Terminal Aerodrome Forecast
Issued by NWS

Home | Current Version | Previous Version | Text Only | Print | Product List | Glossary On
Versions: 1 2 3 4 5 6 7 8 9 10 11 12 13 14 15 16 17 18 19 20 21 22 23 24 25 26 27 28 29 30 31 32 33 34 35 36 37 38 39 40 41 42 43 44 45 46 47 48 49
841
FTUS42 KMFL 041419 AAA
TAFTMB
TAF AMD
KTMB 041419Z 0414/0512 23006KT P6SM VCTS SCT025CB BKN050
      TEMPO 0414/0417 VRB25G35KT 1SM +TSRA SCT015 BKN025CB OVC040
     FM041700 25011KT P6SM VCTS SCT025CB BKN050
     FM050000 29005KT P6SM VCSH FEW025 SCT120 BKN250
     FM050800 31011KT P6SM FEW250=

USA.gov is the U.S. government's official web portal to all federal, state and local government web resources and services.